Time;durP1;ratioP1;P1;durP2;ratioP2;P2;SDS_P1;SDS_P2;PMS_P1;PMS_P2;Temp;Humidity;BMP_temperature;BMP_pressure;BME280_temperature;BME280_humidity;BME280_pressure;Samples;Min_cycle;Max_cycle;Signal;HPM_P1;HPM_P2
2023/12/25 00:01:18;;;;;;;2.13;0.97;;;9.30;99.90;;;;;;4931297;28;20202;-55
2023/12/25 00:03:43;;;;;;;4.33;0.90;;;9.30;99.90;;;;;;4937965;28;20296;-57
2023/12/25 00:06:09;;;;;;;1.13;0.70;;;9.20;99.90;;;;;;4934619;28;20747;-58
2023/12/25 00:08:34;;;;;;;3.47;0.70;;;9.30;99.90;;;;;;4932992;28;20198;-57
2023/12/25 00:11:00;;;;;;;5.03;1.10;;;9.20;99.90;;;;;;4953977;28;20202;-58
2023/12/25 00:13:25;;;;;;;2.30;1.27;;;9.20;99.90;;;;;;4940260;28;20691;-60
2023/12/25 00:15:51;;;;;;;3.73;0.63;;;9.20;99.90;;;;;;4932026;28;20698;-57
2023/12/25 00:18:16;;;;;;;3.03;2.80;;;9.20;99.90;;;;;;4935647;28;20681;-58
2023/12/25 00:20:42;;;;;;;7.53;1.47;;;9.20;99.90;;;;;;4934002;28;20566;-57
2023/12/25 00:23:08;;;;;;;2.90;0.87;;;9.20;99.90;;;;;;4932620;28;20198;-61
2023/12/25 00:25:33;;;;;;;2.50;1.03;;;9.20;99.90;;;;;;4933408;28;20595;-56
2023/12/25 00:27:59;;;;;;;1.10;1.00;;;9.10;99.90;;;;;;4932751;28;20217;-56
2023/12/25 00:30:24;;;;;;;2.87;0.90;;;9.10;99.90;;;;;;4935321;28;20208;-57
2023/12/25 00:32:50;;;;;;;2.33;0.80;;;9.10;99.90;;;;;;4931398;28;20229;-57
2023/12/25 00:35:15;;;;;;;3.63;1.23;;;9.10;99.90;;;;;;4931411;28;20629;-57
2023/12/25 00:37:41;;;;;;;4.10;1.10;;;9.20;99.90;;;;;;4931460;28;20222;-58
2023/12/25 00:40:07;;;;;;;2.63;1.23;;;9.20;99.90;;;;;;4933135;28;20238;-57
2023/12/25 00:42:32;;;;;;;3.90;2.30;;;9.20;99.90;;;;;;4938703;28;20268;-72
2023/12/25 00:44:58;;;;;;;2.33;1.07;;;9.30;99.90;;;;;;4934689;28;20258;-72
2023/12/25 00:47:23;;;;;;;2.20;1.00;;;9.40;99.90;;;;;;4936391;28;20291;-73
2023/12/25 00:49:50;;;;;;;2.77;1.00;;;9.40;99.90;;;;;;4931637;28;20252;-72
2023/12/25 00:52:17;;;;;;;0.80;0.60;;;9.40;99.90;;;;;;4934548;28;20210;-73
2023/12/25 00:54:43;;;;;;;1.17;0.93;;;9.40;99.90;;;;;;4932133;28;20229;-69
2023/12/25 00:57:09;;;;;;;2.67;1.10;;;9.40;99.90;;;;;;4931661;28;20669;-70
2023/12/25 00:59:34;;;;;;;2.10;1.13;;;9.50;99.90;;;;;;4934061;28;20195;-70
2023/12/25 01:02:00;;;;;;;1.60;1.30;;;9.50;99.90;;;;;;4938564;28;21053;-70
2023/12/25 01:04:25;;;;;;;1.57;1.30;;;9.50;99.90;;;;;;4934951;28;20763;-69
2023/12/25 01:06:51;;;;;;;4.73;0.83;;;9.40;99.90;;;;;;4936464;28;20201;-58
2023/12/25 01:09:17;;;;;;;5.23;1.63;;;9.50;99.90;;;;;;4936499;28;20222;-57
2023/12/25 01:11:43;;;;;;;5.57;1.33;;;9.50;99.90;;;;;;4935852;28;20220;-59
2023/12/25 01:14:10;;;;;;;3.30;1.20;;;9.50;99.90;;;;;;4948693;28;20189;-56
2023/12/25 01:16:37;;;;;;;4.83;1.37;;;9.50;99.90;;;;;;4934991;28;20204;-57
2023/12/25 01:19:02;;;;;;;3.97;1.40;;;9.50;99.90;;;;;;4951851;28;20209;-58
2023/12/25 01:21:28;;;;;;;4.10;2.50;;;9.50;99.90;;;;;;4930745;28;20202;-57
2023/12/25 01:23:54;;;;;;;3.03;1.40;;;9.60;99.90;;;;;;4933210;28;20202;-58
2023/12/25 01:26:19;;;;;;;5.93;1.47;;;9.60;99.90;;;;;;4937219;28;20253;-57
2023/12/25 01:28:45;;;;;;;3.97;2.10;;;9.70;99.90;;;;;;4940608;28;20213;-58
2023/12/25 01:31:11;;;;;;;1.90;1.13;;;9.70;99.90;;;;;;4940589;28;20216;-58
2023/12/25 01:33:36;;;;;;;3.20;1.87;;;9.70;99.90;;;;;;4941485;28;21068;-56
2023/12/25 01:36:02;;;;;;;4.60;1.70;;;9.80;99.90;;;;;;4943623;28;20289;-57
2023/12/25 01:38:28;;;;;;;3.77;1.33;;;9.90;99.90;;;;;;4945185;28;20208;-59
2023/12/25 01:40:53;;;;;;;1.17;0.93;;;9.90;99.90;;;;;;4949671;28;20869;-56
2023/12/25 01:43:19;;;;;;;3.37;1.43;;;9.80;99.90;;;;;;4951280;28;20201;-57
2023/12/25 01:45:44;;;;;;;3.50;2.03;;;9.80;99.90;;;;;;4961372;28;20209;-56
2023/12/25 01:48:11;;;;;;;3.13;1.30;;;9.80;99.90;;;;;;4943382;28;20201;-57
2023/12/25 01:50:37;;;;;;;3.70;0.97;;;9.90;99.90;;;;;;4942718;28;20190;-57
2023/12/25 01:53:04;;;;;;;4.30;1.13;;;9.80;99.90;;;;;;4939262;28;20335;-58
2023/12/25 01:55:30;;;;;;;3.33;0.90;;;9.90;99.90;;;;;;4942106;28;20221;-56
2023/12/25 01:57:55;;;;;;;3.07;1.37;;;9.90;99.90;;;;;;4944763;28;20202;-56
2023/12/25 02:00:21;;;;;;;2.80;1.57;;;9.80;99.90;;;;;;4942850;28;20687;-56
2023/12/25 02:02:46;;;;;;;2.63;1.20;;;9.80;99.90;;;;;;4940825;28;20595;-57
2023/12/25 02:05:12;;;;;;;2.00;1.20;;;9.80;99.90;;;;;;4939292;28;20264;-55
2023/12/25 02:07:41;;;;;;;2.97;1.37;;;9.80;99.90;;;;;;4939397;28;20293;-56
2023/12/25 02:10:08;;;;;;;2.27;1.10;;;9.80;99.90;;;;;;4942226;28;20279;-57
2023/12/25 02:12:37;;;;;;;3.00;1.20;;;9.80;99.90;;;;;;4946863;28;20209;-56
2023/12/25 02:15:06;;;;;;;2.60;1.03;;;9.80;99.90;;;;;;4946300;28;20297;-62
2023/12/25 02:17:32;;;;;;;3.50;1.27;;;9.90;99.90;;;;;;4951091;28;20237;-53
2023/12/25 02:19:58;;;;;;;1.60;1.20;;;9.90;99.90;;;;;;4940456;28;20206;-54
2023/12/25 02:22:24;;;;;;;4.53;1.77;;;9.90;99.90;;;;;;4940843;28;20281;-53
2023/12/25 02:25:13;;;;;;;1.67;0.93;;;10.00;99.90;;;;;;4942969;28;20312;-53
2023/12/25 02:27:39;;;;;;;2.47;1.27;;;10.00;99.90;;;;;;4938829;28;20209;-53
2023/12/25 02:30:06;;;;;;;4.73;1.40;;;10.10;99.90;;;;;;4944798;28;20274;-52
2023/12/25 02:32:31;;;;;;;5.00;1.70;;;10.10;99.90;;;;;;4944275;28;20329;-52
2023/12/25 02:34:57;;;;;;;4.27;1.77;;;10.10;99.90;;;;;;4941884;28;20320;-52
2023/12/25 02:37:23;;;;;;;3.23;1.63;;;10.20;99.90;;;;;;4941739;28;20255;-53
2023/12/25 02:39:49;;;;;;;4.60;1.00;;;10.30;99.90;;;;;;4938696;28;20258;-52
2023/12/25 02:42:14;;;;;;;2.23;0.90;;;10.30;99.90;;;;;;4938627;28;20198;-53
2023/12/25 02:44:39;;;;;;;3.87;1.10;;;10.40;99.90;;;;;;4941241;28;20230;-53
2023/12/25 02:47:05;;;;;;;2.83;1.30;;;10.30;99.90;;;;;;4940882;28;20224;-53
2023/12/25 02:49:30;;;;;;;1.47;1.13;;;10.30;99.90;;;;;;4933304;28;21071;-53
2023/12/25 02:51:56;;;;;;;4.97;1.13;;;10.20;99.90;;;;;;4935946;28;20210;-52
2023/12/25 02:54:21;;;;;;;2.73;1.43;;;10.20;99.90;;;;;;4943094;28;20622;-52
2023/12/25 02:56:47;;;;;;;6.30;2.00;;;10.30;99.90;;;;;;4938988;28;20494;-52
2023/12/25 02:59:13;;;;;;;2.70;1.17;;;10.30;99.90;;;;;;4941126;28;20240;-52
2023/12/25 03:01:38;;;;;;;2.87;1.17;;;10.30;99.90;;;;;;4942858;28;20660;-53
2023/12/25 03:04:04;;;;;;;3.17;1.63;;;10.20;99.90;;;;;;4940436;28;20814;-53
2023/12/25 03:06:29;;;;;;;3.60;1.20;;;10.30;99.90;;;;;;4939455;28;20316;-53
2023/12/25 03:08:55;;;;;;;3.83;1.67;;;10.30;99.90;;;;;;4944265;28;20573;-52
2023/12/25 03:11:20;;;;;;;2.20;1.00;;;10.30;99.90;;;;;;4940854;28;20662;-52
2023/12/25 03:13:46;;;;;;;3.80;1.23;;;10.30;99.90;;;;;;4938120;28;20226;-52
2023/12/25 03:16:11;;;;;;;3.67;1.30;;;10.30;99.90;;;;;;4938704;28;20281;-53
2023/12/25 03:18:37;;;;;;;1.60;1.13;;;10.30;99.90;;;;;;4935565;28;20209;-53
2023/12/25 03:21:03;;;;;;;2.80;1.17;;;10.10;99.90;;;;;;4942207;28;20205;-52
2023/12/25 03:23:28;;;;;;;4.03;1.37;;;9.90;99.90;;;;;;4936114;28;20202;-53
2023/12/25 03:25:54;;;;;;;2.77;1.20;;;9.80;99.90;;;;;;4933067;28;21025;-53
2023/12/25 03:28:19;;;;;;;1.83;1.20;;;9.70;99.90;;;;;;4938115;28;20207;-53
2023/12/25 03:30:45;;;;;;;2.10;1.23;;;9.60;99.90;;;;;;4942349;28;20255;-53
2023/12/25 03:33:10;;;;;;;3.30;1.27;;;9.60;99.90;;;;;;4949907;28;20210;-53
2023/12/25 03:35:36;;;;;;;4.03;1.60;;;9.60;99.90;;;;;;4948194;28;20219;-53
2023/12/25 03:38:01;;;;;;;2.97;1.63;;;9.60;99.90;;;;;;4939639;28;20296;-53
2023/12/25 03:40:27;;;;;;;4.47;1.50;;;9.50;99.90;;;;;;4936203;28;20194;-53
2023/12/25 03:42:55;;;;;;;2.67;1.53;;;9.50;99.90;;;;;;4933759;28;20692;-53
2023/12/25 03:45:21;;;;;;;6.00;1.77;;;9.50;99.90;;;;;;4941651;28;20217;-54
2023/12/25 03:47:47;;;;;;;4.80;1.57;;;9.50;99.90;;;;;;4939281;28;20201;-53
2023/12/25 03:50:12;;;;;;;6.20;1.70;;;9.50;99.90;;;;;;4935688;28;20679;-54
2023/12/25 03:52:38;;;;;;;4.17;1.33;;;9.50;99.90;;;;;;4937041;28;20280;-53
2023/12/25 03:55:04;;;;;;;3.90;1.40;;;9.50;99.90;;;;;;4933581;28;20596;-53
2023/12/25 03:57:29;;;;;;;3.47;1.63;;;9.50;99.90;;;;;;4940481;28;20200;-53
2023/12/25 03:59:55;;;;;;;3.77;1.77;;;9.50;99.90;;;;;;4939551;28;20700;-53
2023/12/25 04:02:21;;;;;;;3.77;2.20;;;9.60;99.90;;;;;;4954966;28;20722;-53
2023/12/25 04:04:47;;;;;;;2.53;1.00;;;9.60;99.90;;;;;;4940582;28;20301;-52
2023/12/25 04:07:14;;;;;;;2.87;1.17;;;9.60;99.90;;;;;;4933441;28;20221;-52
2023/12/25 04:09:41;;;;;;;3.33;1.27;;;9.60;99.90;;;;;;4939377;28;20963;-53
2023/12/25 04:12:06;;;;;;;4.57;1.93;;;9.60;99.90;;;;;;4938703;28;20205;-53
2023/12/25 04:14:35;;;;;;;6.00;1.60;;;9.70;99.90;;;;;;4937040;28;20210;-53
2023/12/25 04:17:01;;;;;;;4.37;1.20;;;9.70;99.90;;;;;;4949798;28;20687;-52
2023/12/25 04:19:26;;;;;;;3.83;1.67;;;9.70;99.90;;;;;;4937535;28;20236;-53
2023/12/25 04:21:51;;;;;;;2.27;1.37;;;9.70;99.90;;;;;;4936910;28;20602;-52
2023/12/25 04:24:17;;;;;;;1.60;1.30;;;9.70;99.90;;;;;;4936110;28;20209;-53
2023/12/25 04:26:42;;;;;;;6.70;1.93;;;9.80;99.90;;;;;;4937494;28;20611;-53
2023/12/25 04:29:09;;;;;;;5.70;1.20;;;9.90;99.90;;;;;;4935275;28;20704;-53
2023/12/25 04:31:34;;;;;;;1.83;1.53;;;10.00;99.90;;;;;;4938916;28;20220;-53
2023/12/25 04:34:00;;;;;;;3.37;1.20;;;10.00;99.90;;;;;;4933260;28;20724;-53
2023/12/25 04:36:25;;;;;;;2.93;1.33;;;10.10;99.90;;;;;;4937187;28;20207;-53
2023/12/25 04:38:51;;;;;;;1.70;1.03;;;10.20;99.90;;;;;;4934396;28;20273;-53
2023/12/25 04:41:23;;;;;;;2.53;1.23;;;10.10;99.90;;;;;;4932278;28;20250;-52
2023/12/25 04:43:50;;;;;;;3.33;1.13;;;10.20;99.90;;;;;;4935443;28;20248;-52
2023/12/25 04:46:19;;;;;;;3.07;1.47;;;10.30;99.90;;;;;;4935732;28;20930;-53
2023/12/25 04:48:45;;;;;;;3.53;1.57;;;10.30;99.90;;;;;;4938986;28;20206;-54
2023/12/25 04:51:10;;;;;;;2.30;1.20;;;10.30;99.90;;;;;;4937342;28;20206;-53
2023/12/25 04:53:36;;;;;;;3.13;1.10;;;10.30;99.90;;;;;;4937853;28;20218;-53
2023/12/25 04:56:05;;;;;;;1.13;0.87;;;10.30;99.90;;;;;;4936414;28;20700;-54
2023/12/25 04:58:30;;;;;;;2.57;0.80;;;10.40;99.90;;;;;;4936805;28;20672;-54
2023/12/25 05:00:56;;;;;;;2.83;0.80;;;10.50;99.90;;;;;;4940425;28;20198;-53
2023/12/25 05:03:21;;;;;;;2.33;1.00;;;10.50;99.90;;;;;;4932041;28;20230;-54
2023/12/25 05:05:48;;;;;;;2.03;1.17;;;10.50;99.90;;;;;;4942208;28;20584;-54
2023/12/25 05:08:14;;;;;;;1.67;0.80;;;10.50;99.90;;;;;;4943867;28;20250;-66
2023/12/25 05:10:39;;;;;;;4.00;1.40;;;10.50;99.90;;;;;;4942223;28;20339;-61
2023/12/25 05:13:05;;;;;;;4.10;1.20;;;10.50;99.90;;;;;;4937657;28;20212;-60
2023/12/25 05:15:30;;;;;;;2.23;1.27;;;10.60;99.90;;;;;;4941057;28;20206;-61
2023/12/25 05:17:56;;;;;;;4.17;1.37;;;10.50;99.90;;;;;;4942894;28;20193;-54
2023/12/25 05:20:21;;;;;;;3.83;1.10;;;10.50;99.90;;;;;;4936901;28;20209;-54
2023/12/25 05:22:47;;;;;;;3.53;1.00;;;10.60;99.90;;;;;;4933999;28;20199;-53
2023/12/25 05:25:12;;;;;;;4.07;1.17;;;10.70;99.90;;;;;;4938816;28;20859;-53
2023/12/25 05:27:38;;;;;;;1.47;0.63;;;10.70;99.90;;;;;;4932482;28;20200;-54
2023/12/25 05:30:04;;;;;;;1.13;1.00;;;10.70;99.90;;;;;;4932339;28;20653;-53
2023/12/25 05:32:30;;;;;;;3.60;1.20;;;10.70;99.90;;;;;;4931459;28;20201;-54
2023/12/25 05:34:56;;;;;;;6.33;1.90;;;10.70;99.90;;;;;;4935887;28;20198;-54
2023/12/25 05:37:21;;;;;;;1.20;0.90;;;10.80;99.90;;;;;;4939382;28;20638;-54
2023/12/25 05:39:47;;;;;;;3.00;0.87;;;10.80;99.90;;;;;;4951197;28;20779;-54
2023/12/25 05:42:12;;;;;;;7.60;1.33;;;10.80;99.90;;;;;;4933994;28;20297;-55
2023/12/25 05:44:38;;;;;;;1.73;1.63;;;10.80;99.90;;;;;;4934493;28;20217;-54
2023/12/25 05:47:04;;;;;;;2.00;1.17;;;10.90;99.90;;;;;;4934615;28;20248;-54
2023/12/25 05:49:30;;;;;;;2.67;1.13;;;10.90;99.90;;;;;;4940711;28;20201;-54
2023/12/25 05:51:55;;;;;;;1.03;0.90;;;10.90;99.90;;;;;;4941409;28;20206;-54
2023/12/25 05:54:21;;;;;;;0.80;0.80;;;10.90;99.90;;;;;;4953208;28;20642;-54
2023/12/25 05:56:46;;;;;;;2.90;1.10;;;11.00;99.90;;;;;;4956143;28;20241;-54
2023/12/25 05:59:12;;;;;;;0.87;0.83;;;11.00;99.90;;;;;;4940700;28;20692;-53
2023/12/25 06:01:37;;;;;;;1.77;1.20;;;11.00;99.90;;;;;;4940305;28;20202;-54
2023/12/25 06:04:03;;;;;;;0.90;0.90;;;10.90;99.90;;;;;;4931407;28;20242;-54
2023/12/25 06:06:28;;;;;;;3.23;1.13;;;11.00;99.90;;;;;;4939003;28;20222;-54
2023/12/25 06:08:55;;;;;;;2.73;1.00;;;11.10;99.90;;;;;;4947139;28;20255;-53
2023/12/25 06:11:21;;;;;;;2.93;1.67;;;11.00;99.90;;;;;;4949790;28;20226;-54
2023/12/25 06:13:46;;;;;;;2.20;1.23;;;11.00;99.90;;;;;;4937134;28;20692;-54
2023/12/25 06:16:12;;;;;;;4.13;1.27;;;11.00;99.90;;;;;;4945010;28;20218;-55
2023/12/25 06:18:37;;;;;;;0.70;0.70;;;11.00;99.90;;;;;;4938200;28;20846;-54
2023/12/25 06:21:03;;;;;;;5.03;1.13;;;11.00;99.90;;;;;;4952235;28;20202;-54
2023/12/25 06:23:29;;;;;;;3.17;1.00;;;11.00;99.90;;;;;;4940861;28;20279;-67
2023/12/25 06:25:55;;;;;;;3.10;1.27;;;11.00;99.90;;;;;;4938300;28;21083;-59
2023/12/25 06:28:20;;;;;;;2.80;1.10;;;11.20;99.90;;;;;;4935481;28;20333;-56
2023/12/25 06:30:46;;;;;;;3.07;1.17;;;11.70;99.90;;;;;;4937627;28;20954;-67
2023/12/25 06:33:11;;;;;;;1.03;0.80;;;11.90;99.90;;;;;;4935550;28;20209;-60
2023/12/25 06:35:37;;;;;;;2.20;1.40;;;11.40;99.90;;;;;;4933887;28;20684;-63
2023/12/25 06:38:03;;;;;;;3.00;1.03;;;11.20;99.90;;;;;;4950908;28;20205;-61
2023/12/25 06:40:28;;;;;;;5.33;1.37;;;11.10;99.90;;;;;;4936801;28;20193;-63
2023/12/25 06:42:54;;;;;;;4.20;1.13;;;11.00;99.90;;;;;;4933276;28;20226;-60
2023/12/25 06:45:19;;;;;;;3.20;1.50;;;11.00;99.90;;;;;;4940473;28;20254;-63
2023/12/25 06:47:46;;;;;;;1.97;1.20;;;11.10;99.90;;;;;;4937944;28;20217;-58
2023/12/25 06:50:12;;;;;;;3.60;0.90;;;11.00;99.90;;;;;;4932390;28;20242;-60
2023/12/25 06:52:40;;;;;;;4.07;1.27;;;11.00;99.90;;;;;;4932182;28;20765;-58
2023/12/25 06:55:06;;;;;;;3.73;1.10;;;11.00;99.90;;;;;;4951542;28;20257;-61
2023/12/25 06:57:32;;;;;;;2.30;0.90;;;11.00;99.90;;;;;;4931885;29;20210;-59
2023/12/25 06:59:57;;;;;;;4.10;1.40;;;11.00;99.90;;;;;;4932646;28;20211;-63
2023/12/25 07:02:23;;;;;;;3.80;0.80;;;11.00;99.90;;;;;;4936298;28;20218;-59
2023/12/25 07:04:48;;;;;;;2.77;1.20;;;10.90;99.90;;;;;;4935397;28;20281;-58
2023/12/25 07:07:14;;;;;;;3.57;1.27;;;10.90;99.90;;;;;;4937202;28;20210;-63
2023/12/25 07:09:42;;;;;;;2.23;0.87;;;10.90;99.90;;;;;;4932812;28;20214;-60
2023/12/25 07:12:07;;;;;;;5.33;1.13;;;10.90;99.90;;;;;;4977942;23;20252;-60
2023/12/25 07:14:33;;;;;;;4.50;1.30;;;10.90;99.90;;;;;;4950461;28;20205;-60
2023/12/25 07:16:58;;;;;;;2.13;1.33;;;10.90;99.90;;;;;;4950178;28;20275;-60
2023/12/25 07:19:24;;;;;;;3.10;1.30;;;10.90;99.90;;;;;;4951629;28;20243;-60
2023/12/25 07:21:49;;;;;;;4.17;1.43;;;10.90;99.90;;;;;;4960325;28;20205;-60
2023/12/25 07:24:15;;;;;;;1.87;0.90;;;10.90;99.90;;;;;;4964813;28;20268;-57
2023/12/25 07:26:40;;;;;;;5.87;1.07;;;10.80;99.90;;;;;;4950528;28;20222;-60
2023/12/25 07:29:06;;;;;;;3.90;1.50;;;10.80;99.90;;;;;;4960397;28;20672;-60
2023/12/25 07:31:31;;;;;;;6.07;1.20;;;10.80;99.90;;;;;;4959706;28;20202;-60
2023/12/25 07:33:56;;;;;;;1.53;0.97;;;10.80;99.90;;;;;;4954497;28;20209;-60
2023/12/25 07:36:22;;;;;;;4.07;1.40;;;10.70;99.90;;;;;;4954242;28;20302;-57
2023/12/25 07:38:48;;;;;;;3.50;1.00;;;10.80;99.90;;;;;;4955137;28;20211;-62
2023/12/25 07:41:13;;;;;;;6.13;1.47;;;11.00;99.90;;;;;;4958482;28;20202;-61
2023/12/25 07:43:39;;;;;;;3.90;1.03;;;11.10;99.90;;;;;;4954356;28;20285;-60
2023/12/25 07:46:06;;;;;;;6.10;1.90;;;11.30;99.90;;;;;;4953744;28;20217;-63
2023/12/25 07:48:31;;;;;;;1.80;1.10;;;11.20;99.90;;;;;;4958451;28;20214;-61
2023/12/25 07:50:57;;;;;;;3.40;1.13;;;11.30;99.90;;;;;;4962569;28;20220;-66
2023/12/25 07:53:23;;;;;;;1.37;0.90;;;11.40;99.90;;;;;;4951748;28;20211;-59
2023/12/25 07:55:48;;;;;;;5.47;1.60;;;11.60;99.90;;;;;;4950792;28;20203;-73
2023/12/25 07:58:14;;;;;;;2.83;0.80;;;11.20;99.90;;;;;;4956971;28;20889;-57
2023/12/25 08:00:42;;;;;;;2.27;1.00;;;11.10;99.90;;;;;;4952937;28;20197;-63
2023/12/25 08:03:11;;;;;;;2.80;1.23;;;11.40;99.90;;;;;;4954705;28;20210;-66
2023/12/25 08:05:38;;;;;;;2.97;1.20;;;11.30;99.90;;;;;;4957536;28;20228;-58
2023/12/25 08:08:07;;;;;;;2.87;1.13;;;11.30;99.90;;;;;;4963620;28;20209;-66
2023/12/25 08:10:33;;;;;;;4.07;1.10;;;11.10;99.90;;;;;;4954524;28;20676;-56
2023/12/25 08:13:02;;;;;;;5.13;1.13;;;11.20;99.90;;;;;;4954551;28;20223;-57
2023/12/25 08:15:31;;;;;;;7.07;1.33;;;11.30;99.90;;;;;;4955242;28;20206;-57
2023/12/25 08:17:56;;;;;;;2.23;1.10;;;11.30;99.90;;;;;;4954326;28;20296;-56
2023/12/25 08:20:22;;;;;;;2.10;1.10;;;11.40;99.90;;;;;;4963390;28;20912;-55
2023/12/25 08:22:48;;;;;;;1.90;1.30;;;11.50;99.90;;;;;;4954752;28;20281;-56
2023/12/25 08:25:14;;;;;;;3.40;1.20;;;11.40;99.90;;;;;;4958648;28;20225;-63
2023/12/25 08:27:39;;;;;;;3.70;1.43;;;11.50;99.90;;;;;;4954395;28;20973;-56
2023/12/25 08:30:06;;;;;;;3.63;1.20;;;11.40;99.90;;;;;;4955898;28;20205;-72
2023/12/25 08:32:32;;;;;;;1.13;0.80;;;11.50;99.90;;;;;;4953951;28;20209;-64
2023/12/25 08:34:57;;;;;;;3.17;1.13;;;11.40;99.90;;;;;;4951730;28;20199;-63
2023/12/25 08:37:23;;;;;;;3.63;0.87;;;11.30;99.90;;;;;;4950920;28;20207;-62
2023/12/25 08:39:48;;;;;;;1.53;0.90;;;11.30;99.90;;;;;;4952325;28;20576;-59
2023/12/25 08:42:13;;;;;;;2.27;1.40;;;11.40;99.90;;;;;;4949722;28;20675;-58
2023/12/25 08:44:39;;;;;;;2.33;0.93;;;11.30;99.90;;;;;;4947539;28;20281;-57
2023/12/25 08:47:05;;;;;;;4.20;1.30;;;11.10;99.90;;;;;;4952949;28;20250;-57
2023/12/25 08:49:30;;;;;;;3.47;2.30;;;11.20;99.90;;;;;;4943687;28;20233;-57
2023/12/25 08:51:56;;;;;;;4.00;1.53;;;11.30;99.90;;;;;;4948542;28;20229;-63
2023/12/25 08:54:21;;;;;;;1.27;0.87;;;11.20;99.90;;;;;;4951877;28;20234;-56
2023/12/25 08:56:47;;;;;;;4.10;1.30;;;11.00;99.90;;;;;;4949023;28;21160;-56
2023/12/25 08:59:13;;;;;;;4.50;1.73;;;10.80;99.90;;;;;;4966234;23;20301;-56
2023/12/25 09:01:39;;;;;;;2.53;1.40;;;10.70;99.90;;;;;;4995223;23;20233;-56
2023/12/25 09:04:04;;;;;;;4.80;1.00;;;10.70;99.90;;;;;;4963665;28;20208;-56
2023/12/25 09:06:29;;;;;;;1.50;1.10;;;10.70;99.90;;;;;;4952442;28;20221;-56
2023/12/25 09:08:55;;;;;;;1.00;1.00;;;10.70;99.90;;;;;;4968913;28;20880;-56
2023/12/25 09:11:21;;;;;;;3.53;1.10;;;10.70;99.90;;;;;;4971288;28;20288;-57
2023/12/25 09:13:46;;;;;;;3.00;1.27;;;10.70;99.90;;;;;;4948983;28;20299;-57
2023/12/25 09:16:12;;;;;;;2.40;1.77;;;10.70;99.90;;;;;;4970150;28;20188;-56
2023/12/25 09:18:37;;;;;;;4.77;1.17;;;10.70;99.90;;;;;;4968982;28;20205;-56
2023/12/25 09:21:03;;;;;;;3.90;1.60;;;10.60;99.90;;;;;;4962809;28;20749;-56
2023/12/25 09:23:29;;;;;;;1.30;0.90;;;10.60;99.90;;;;;;4970674;28;20202;-55
2023/12/25 09:25:54;;;;;;;2.90;1.30;;;10.60;99.90;;;;;;4968617;28;20228;-56
2023/12/25 09:28:20;;;;;;;3.10;1.47;;;10.60;99.90;;;;;;4968961;28;20248;-56
2023/12/25 09:30:46;;;;;;;3.67;1.70;;;10.60;99.90;;;;;;4971248;28;20227;-56
2023/12/25 09:33:12;;;;;;;6.07;1.80;;;10.60;99.90;;;;;;4971897;28;20197;-56
2023/12/25 09:35:37;;;;;;;6.57;1.77;;;10.60;99.90;;;;;;4972400;28;20200;-56
2023/12/25 09:38:03;;;;;;;2.47;0.97;;;10.60;99.90;;;;;;4972087;28;20778;-58
2023/12/25 09:40:30;;;;;;;2.33;1.13;;;10.60;99.90;;;;;;4958079;28;20307;-57
2023/12/25 09:43:01;;;;;;;4.57;1.50;;;10.60;99.90;;;;;;4963683;28;20193;-56
2023/12/25 09:45:34;;;;;;;5.50;1.60;;;10.60;99.90;;;;;;4973448;28;20211;-56
2023/12/25 09:48:00;;;;;;;3.50;1.53;;;10.60;99.90;;;;;;4973277;28;20202;-55
2023/12/25 09:50:26;;;;;;;4.10;1.10;;;10.60;99.90;;;;;;4975662;28;20192;-56
2023/12/25 09:52:52;;;;;;;6.50;1.67;;;10.60;99.90;;;;;;4978827;28;20758;-56
2023/12/25 09:55:17;;;;;;;5.20;1.20;;;10.60;99.90;;;;;;4974098;28;20547;-55
2023/12/25 09:57:44;;;;;;;3.70;2.03;;;10.70;99.90;;;;;;4973188;28;20197;-55
2023/12/25 10:00:10;;;;;;;2.30;1.10;;;10.70;99.90;;;;;;4980852;28;20221;-55
2023/12/25 10:02:45;;;;;;;3.90;1.30;;;10.80;99.90;;;;;;4978945;28;20212;-56
2023/12/25 10:05:12;;;;;;;4.67;1.67;;;10.80;99.90;;;;;;4983654;28;20228;-55
2023/12/25 10:07:37;;;;;;;5.87;1.20;;;10.80;99.90;;;;;;4960991;28;20835;-55
2023/12/25 10:10:05;;;;;;;3.23;1.27;;;10.70;99.90;;;;;;4980479;28;20321;-56
2023/12/25 10:12:30;;;;;;;2.73;1.47;;;10.70;99.90;;;;;;4984902;28;20196;-55
2023/12/25 10:14:56;;;;;;;2.83;1.10;;;10.70;99.90;;;;;;4983355;28;20253;-56
2023/12/25 10:17:21;;;;;;;3.33;1.60;;;10.70;99.90;;;;;;4983229;28;20216;-55
2023/12/25 10:19:57;;;;;;;3.43;1.10;;;10.70;99.90;;;;;;4985793;28;20320;-56
2023/12/25 10:22:31;;;;;;;3.57;1.10;;;10.70;99.90;;;;;;4978430;28;20230;-55
2023/12/25 10:25:10;;;;;;;3.33;1.40;;;10.70;99.90;;;;;;4983139;28;20224;-55
2023/12/25 10:27:39;;;;;;;4.60;1.27;;;10.70;99.90;;;;;;4975258;28;20298;-56
2023/12/25 10:30:15;;;;;;;5.50;1.47;;;10.70;99.90;;;;;;4984419;28;20212;-56
2023/12/25 10:32:40;;;;;;;3.50;1.17;;;10.70;99.90;;;;;;4980435;28;20200;-56
2023/12/25 10:35:14;;;;;;;5.83;1.30;;;10.70;99.90;;;;;;4972926;28;20858;-56
2023/12/25 10:37:41;;;;;;;1.90;1.10;;;10.70;99.90;;;;;;4959001;28;20194;-56
2023/12/25 10:40:21;;;;;;;2.87;1.57;;;10.70;99.90;;;;;;4975905;28;20209;-56
2023/12/25 10:42:50;;;;;;;3.00;1.30;;;10.70;99.90;;;;;;4975596;28;20208;-55
2023/12/25 10:45:22;;;;;;;3.23;1.67;;;10.70;99.90;;;;;;4975548;28;20224;-56
2023/12/25 10:47:50;;;;;;;5.03;1.90;;;10.70;99.90;;;;;;4977049;28;20201;-55
2023/12/25 10:50:23;;;;;;;4.17;1.27;;;10.70;99.90;;;;;;4958505;28;20999;-55
2023/12/25 10:52:50;;;;;;;5.57;1.47;;;10.70;99.90;;;;;;4956644;28;20219;-56
2023/12/25 10:55:28;;;;;;;2.70;1.50;;;10.70;99.90;;;;;;4980844;28;20189;-56
2023/12/25 10:57:55;;;;;;;5.43;1.77;;;10.70;99.90;;;;;;4978751;28;20226;-57
2023/12/25 11:00:22;;;;;;;1.30;1.20;;;10.80;99.90;;;;;;4978287;28;20234;-56
2023/12/25 11:02:52;;;;;;;3.97;1.83;;;10.80;99.90;;;;;;4978852;28;20679;-56
2023/12/25 11:05:19;;;;;;;3.33;1.50;;;10.80;99.90;;;;;;4981290;28;20701;-56
2023/12/25 11:07:44;;;;;;;5.93;1.70;;;10.80;99.90;;;;;;4976645;28;20268;-56
2023/12/25 11:10:11;;;;;;;5.43;1.60;;;10.80;99.90;;;;;;4983975;28;20204;-57
2023/12/25 11:12:38;;;;;;;3.17;1.40;;;10.70;99.90;;;;;;4978571;28;20221;-56
2023/12/25 11:15:05;;;;;;;2.53;1.10;;;10.80;99.90;;;;;;4975792;28;20194;-56
2023/12/25 11:17:31;;;;;;;3.47;1.90;;;10.80;99.90;;;;;;4972829;28;20718;-56
2023/12/25 11:19:57;;;;;;;4.23;1.27;;;10.80;99.90;;;;;;4984736;28;20671;-56
2023/12/25 11:22:32;;;;;;;3.33;1.60;;;10.90;99.90;;;;;;4987756;28;20211;-56
2023/12/25 11:25:00;;;;;;;3.23;1.53;;;10.80;99.90;;;;;;4980524;28;20231;-55
2023/12/25 11:27:26;;;;;;;3.83;1.27;;;10.90;99.90;;;;;;4980144;28;20213;-55
2023/12/25 11:30:00;;;;;;;4.83;1.57;;;10.90;99.90;;;;;;4979310;28;20197;-56
2023/12/25 11:32:25;;;;;;;7.83;1.87;;;10.90;99.90;;;;;;4987938;28;20310;-57
2023/12/25 11:34:51;;;;;;;7.50;2.20;;;11.00;99.90;;;;;;4965465;28;20225;-56
2023/12/25 11:37:20;;;;;;;3.57;1.33;;;11.10;99.90;;;;;;4958626;28;20204;-55
2023/12/25 11:39:56;;;;;;;11.33;2.10;;;11.10;99.90;;;;;;4971455;28;20202;-73
2023/12/25 11:42:22;;;;;;;2.90;1.27;;;11.20;99.90;;;;;;4975781;28;20628;-56
2023/12/25 11:44:48;;;;;;;4.93;1.97;;;11.30;99.90;;;;;;4980775;28;20220;-55
2023/12/25 11:47:26;;;;;;;3.43;1.03;;;11.20;99.90;;;;;;4980232;28;20195;-56
2023/12/25 11:49:51;;;;;;;3.07;1.60;;;11.30;99.90;;;;;;4978039;28;20192;-55
2023/12/25 11:52:43;;;;;;;4.37;1.67;;;11.10;99.90;;;;;;4986799;28;20268;-56
2023/12/25 11:55:09;;;;;;;4.97;1.80;;;11.00;99.90;;;;;;4969799;28;20197;-56
2023/12/25 11:57:35;;;;;;;5.57;1.40;;;11.00;99.90;;;;;;4970481;28;20198;-55
2023/12/25 12:00:02;;;;;;;4.83;1.60;;;11.00;99.90;;;;;;4979170;28;20228;-55
2023/12/25 12:02:28;;;;;;;4.10;1.73;;;10.90;99.90;;;;;;4970061;28;20209;-55
2023/12/25 12:04:53;;;;;;;2.37;1.70;;;10.90;99.90;;;;;;4976724;28;20238;-55
2023/12/25 12:07:20;;;;;;;5.57;1.87;;;10.90;99.90;;;;;;4974789;28;20353;-56
2023/12/25 12:09:45;;;;;;;3.37;1.70;;;10.80;99.90;;;;;;4974266;28;20207;-56
2023/12/25 12:12:11;;;;;;;2.93;1.37;;;10.80;99.90;;;;;;4976376;28;20204;-56
2023/12/25 12:14:37;;;;;;;4.80;1.33;;;10.70;99.90;;;;;;4972110;28;20287;-56
2023/12/25 12:17:03;;;;;;;4.80;1.90;;;10.80;99.90;;;;;;4969018;28;20216;-55
2023/12/25 12:19:29;;;;;;;3.83;1.80;;;10.80;99.90;;;;;;4975390;28;20212;-56
2023/12/25 12:21:55;;;;;;;5.20;2.10;;;10.80;99.90;;;;;;4974170;28;20189;-56
2023/12/25 12:24:25;;;;;;;4.37;1.57;;;10.90;99.90;;;;;;4960042;28;20735;-56
2023/12/25 12:26:51;;;;;;;4.93;1.93;;;10.90;99.90;;;;;;4954727;28;20213;-56
2023/12/25 12:29:17;;;;;;;3.77;1.37;;;10.90;99.90;;;;;;4976326;28;20200;-56
2023/12/25 12:31:43;;;;;;;4.10;2.10;;;10.80;99.90;;;;;;4987481;28;20657;-64
2023/12/25 12:34:08;;;;;;;6.13;1.43;;;10.80;99.90;;;;;;4976700;28;20292;-65
2023/12/25 12:36:34;;;;;;;4.13;2.13;;;10.90;99.90;;;;;;4953794;28;20284;-68
2023/12/25 12:39:00;;;;;;;5.47;1.73;;;10.80;99.90;;;;;;4952933;28;20209;-56
2023/12/25 12:41:26;;;;;;;3.87;1.70;;;10.90;99.90;;;;;;4975332;28;20261;-56
2023/12/25 12:43:58;;;;;;;6.67;2.27;;;10.80;99.90;;;;;;4975446;28;20208;-57
2023/12/25 12:46:25;;;;;;;1.63;0.97;;;10.80;99.90;;;;;;4974752;28;20225;-58